Lake Charles, LA

12:05 PM CST on December 06, 2016 (GMT -0600)
LCB Academy | | Change Station
Active Advisory: Flood Warning

Elev 33 ft 30.22 °N, 93.20 °W | Updated 4 minutes ago

Overcast
Overcast
64.0 °F
Feels Like 64.0 °F
N
2.0
Wind Variable Wind from NE
Gusts 5.0 mph

Today
High -- | Low -- °F
--% Chance of Precip.
Yesterday
High -- | Low -- °F
Precip. -- in
Pressure 29.96 in
Visibility 10.0 miles
Clouds Overcast 700 ft
Dew Point 56 °F
Humidity 74%
Rainfall 0.00 in
Snow Depth Not available.
6:55 AM 5:12 PM
Waxing Crescent, 43% visible
METAR KCWF 061555Z 00000KT 10SM OVC007 16/11 A2996
Pressure 29.96 in
Visibility 10.0 miles
Clouds Overcast 700 ft
Dew Point 56 °F
Humidity 74%
Rainfall 0.00 in
Snow Depth Not available.
6:55 AM 5:12 PM
Waxing Crescent, 43% visible
METAR KCWF 061555Z 00000KT 10SM OVC007 16/11 A2996

10-Day Weather Forecast

Almanac

Astronomy

Dec. 06, 2016 Rise Set
Actual Time
Civil Twilight
Nautical Twilight
Astronomical Twilight
Moon
Length of Visible Light
Length of Day
Tomorrow will be .
, % of the Moon is Illuminated

Today's Extremes

State Highs State Lows

Community

WunderPhotos

Upload Photos

1,955,989 photos uploaded!

WunderBlog® & News

Nearby

Air Quality

  Air Quality AQ Index Pollutant
Not available.

Snow Depth

Station Depth Elevation

Earthquake Activity

City Distance Mag. Time & Date
Minimum magnitude displayed is 2.5.

Coastal Water Temperatures

Place Temperature

Stations

Nearby Weather Stations

Station Location Temp. Windchill Dew Point Humidity Wind Precip. Elev Updated Type
                   

Watches & Warnings

Flood Warning
Issued: 9:36 AM CST Dec. 6, 2016 – National Weather Service

The Flood Warning continues for
the Calcasieu River at Old Town Bay.
* Until further notice... or until the warning is cancelled.
* At 8:00 am Tuesday the stage was estimated near 4.1 feet.
* Minor flooding is occurring and minor flooding is forecast.
* Flood stage is 4.0 feet.
* Forecast... the river will fluctuate around 4.4 feet.
* Impact... at stages near 4.0 feet... minor flooding of goos Ferry
Road will occur.


Lat... Lon 3030 9329 3019 9321 3025 9308 3031 9303 3038 9314




936 am CST Tue Dec 6 2016

The Flood Warning continues for
the Calcasieu River near salt water barrier.
* Until Sunday morning... or until the warning is cancelled.
* At 6:00 am Tuesday the stage was 3.8 feet.
* Minor flooding is forecast.
* Flood stage is 4.0 feet.
* Forecast... the river will fluctuate around flood stage over the
next several days.
* Impact... at stages near 4.0 feet... minor Marshland flooding
occurs. Flooding also begins on River Road in North Lake Charles.


Lat... Lon 3035 9332 3017 9335 3014 9328 3029 9303 3036 9309